createdAt,value
2023-03-28T00:02:34.108Z,102395.00
2023-03-28T00:05:08.080Z,102397.78
2023-03-28T00:08:01.292Z,102385.88
2023-03-28T00:10:34.236Z,102401.34
2023-03-28T00:13:06.866Z,102389.56
2023-03-28T00:18:32.695Z,102399.44
2023-03-28T00:21:27.624Z,102412.31
2023-03-28T00:24:02.535Z,102409.69
2023-03-28T00:26:36.531Z,102382.91
2023-03-28T00:29:26.206Z,102386.38
2023-03-28T00:32:14.243Z,102373.78
2023-03-28T00:35:09.228Z,102366.34
2023-03-28T00:37:41.890Z,102399.03
2023-03-28T00:40:14.526Z,102387.19
2023-03-28T00:42:47.183Z,102387.28
2023-03-28T00:45:40.393Z,102379.47
2023-03-28T00:48:15.548Z,102403.91
2023-03-28T00:50:48.779Z,102390.63
2023-03-28T00:53:43.392Z,102403.91
2023-03-28T00:56:37.925Z,102400.13
2023-03-28T00:59:34.741Z,102412.00
2023-03-28T01:02:23.012Z,102393.41
2023-03-28T01:05:22.313Z,102406.09
2023-03-28T01:08:20.752Z,102393.94
2023-03-28T01:10:53.508Z,102413.22
2023-03-28T01:20:18.440Z,102407.25
2023-03-28T01:23:17.500Z,102406.97
2023-03-28T01:26:24.385Z,102395.47
2023-03-28T01:29:47.634Z,102375.41
2023-03-28T01:33:37.621Z,102396.19
2023-03-28T01:37:10.570Z,102393.81
2023-03-28T01:40:58.958Z,102387.47
2023-03-28T01:43:56.690Z,102401.13
2023-03-28T01:46:31.998Z,102389.22
2023-03-28T01:49:37.383Z,102385.16
2023-03-28T01:53:00.635Z,102386.38
2023-03-28T01:56:03.206Z,102356.94
2023-03-28T01:59:07.692Z,102371.13
2023-03-28T02:02:08.915Z,102351.41
2023-03-28T02:04:45.283Z,102356.94
2023-03-28T02:07:43.965Z,102366.84
2023-03-28T02:10:23.069Z,102373.63
2023-03-28T02:13:18.824Z,102382.13
2023-03-28T02:16:23.255Z,102355.09
2023-03-28T02:19:24.062Z,102377.19
2023-03-28T02:22:26.049Z,102379.41
2023-03-28T02:25:14.687Z,102370.00
2023-03-28T02:28:03.616Z,102366.53
2023-03-28T02:30:37.206Z,102376.75
2023-03-28T02:37:09.459Z,102374.34
2023-03-28T02:40:21.972Z,102381.91
2023-03-28T02:43:43.031Z,102372.03
2023-03-28T02:47:05.785Z,102378.34
2023-03-28T02:50:32.733Z,102371.19
2023-03-28T02:53:35.455Z,102368.84
2023-03-28T02:56:31.920Z,102371.38
2023-03-28T02:59:32.750Z,102375.25
2023-03-28T03:02:05.815Z,102358.00
2023-03-28T03:04:51.352Z,102344.56
2023-03-28T03:07:25.195Z,102348.56
2023-03-28T03:09:58.224Z,102354.13
2023-03-28T03:12:36.656Z,102345.53
2023-03-28T03:15:11.920Z,102344.31
2023-03-28T03:17:45.234Z,102329.78
2023-03-28T03:20:18.829Z,102347.88
2023-03-28T03:23:00.006Z,102356.16
2023-03-28T03:25:32.644Z,102358.97
2023-03-28T03:28:11.719Z,102365.34
2023-03-28T03:30:44.823Z,102338.53
2023-03-28T03:33:59.637Z,102362.75
2023-03-28T03:36:32.493Z,102363.78
2023-03-28T03:39:05.350Z,102340.16
2023-03-28T03:44:24.712Z,102360.25
2023-03-28T03:47:20.313Z,102374.91
2023-03-28T03:50:08.290Z,102340.94
2023-03-28T03:52:43.505Z,102369.47
2023-03-28T03:55:26.789Z,102362.69
2023-03-28T03:58:07.705Z,102345.72
2023-03-28T04:00:48.900Z,102340.28
2023-03-28T04:03:24.157Z,102339.13
2023-03-28T04:06:05.268Z,102330.81
2023-03-28T04:11:24.533Z,102363.53
2023-03-28T04:14:06.384Z,102340.69
2023-03-28T04:16:42.634Z,102352.94
2023-03-28T04:19:27.578Z,102338.31
2023-03-28T04:22:13.277Z,102358.78
2023-03-28T04:24:56.681Z,102333.25
2023-03-28T04:27:32.087Z,102352.84
2023-03-28T04:30:05.842Z,102359.22
2023-03-28T04:32:50.635Z,102325.69
2023-03-28T04:35:24.184Z,102356.84
2023-03-28T04:38:20.419Z,102358.75
2023-03-28T04:41:08.284Z,102349.00
2023-03-28T04:43:40.935Z,102356.59
2023-03-28T04:46:13.920Z,102348.25
2023-03-28T04:48:58.017Z,102356.13
2023-03-28T04:51:39.105Z,102348.16
2023-03-28T04:54:11.768Z,102340.22
2023-03-28T04:56:56.368Z,102333.97
2023-03-28T04:59:28.938Z,102369.97
2023-03-28T05:02:01.831Z,102346.50
2023-03-28T05:04:34.501Z,102360.59
2023-03-28T05:07:07.780Z,102336.16
2023-03-28T05:09:48.860Z,102345.53
2023-03-28T05:13:06.136Z,102351.72
2023-03-28T05:15:39.058Z,102362.00
2023-03-28T05:18:12.171Z,102358.84
2023-03-28T05:20:54.100Z,102376.06
2023-03-28T05:23:33.072Z,102362.59
2023-03-28T05:29:05.140Z,102378.13
2023-03-28T05:31:46.500Z,102389.63
2023-03-28T05:34:25.750Z,102369.31
2023-03-28T05:36:58.495Z,102378.63
2023-03-28T05:39:37.224Z,102354.09
2023-03-28T05:42:24.401Z,102376.06
2023-03-28T05:44:57.142Z,102378.44
2023-03-28T05:47:32.263Z,102405.44
2023-03-28T05:50:13.480Z,102391.53
2023-03-28T05:52:46.271Z,102369.38
2023-03-28T05:55:18.848Z,102379.53
2023-03-28T05:57:52.060Z,102395.50
2023-03-28T06:00:33.151Z,102365.47
2023-03-28T06:03:17.052Z,102379.91
2023-03-28T06:05:58.401Z,102378.97
2023-03-28T06:08:31.195Z,102371.13
2023-03-28T06:11:04.754Z,102374.09
2023-03-28T06:13:55.495Z,102359.81
2023-03-28T06:16:31.724Z,102362.25
2023-03-28T06:19:17.953Z,102364.88
2023-03-28T06:22:02.971Z,102369.25
2023-03-28T06:24:38.598Z,102381.75
2023-03-28T06:27:11.106Z,102373.81
2023-03-28T06:29:43.848Z,102393.94
2023-03-28T06:32:18.101Z,102376.19
2023-03-28T06:34:50.887Z,102401.81
2023-03-28T06:37:26.429Z,102381.75
2023-03-28T06:39:59.422Z,102403.34
2023-03-28T06:42:32.223Z,102404.91
2023-03-28T06:45:05.319Z,102403.69
2023-03-28T06:47:40.482Z,102405.28
2023-03-28T06:50:13.026Z,102400.91
2023-03-28T06:52:46.410Z,102392.53
2023-03-28T06:55:19.126Z,102400.91
2023-03-28T06:57:51.776Z,102402.50
2023-03-28T07:00:24.434Z,102382.41
2023-03-28T07:02:57.277Z,102409.13
2023-03-28T07:05:30.240Z,102398.13
2023-03-28T07:11:02.809Z,102417.84
2023-03-28T07:13:38.088Z,102406.66
2023-03-28T07:19:01.709Z,102386.25
2023-03-28T07:21:34.617Z,102421.69
2023-03-28T07:24:33.392Z,102406.53
2023-03-28T07:29:42.007Z,102429.13
2023-03-28T07:32:16.160Z,102428.69
2023-03-28T07:34:48.783Z,102433.41
2023-03-28T07:37:21.607Z,102425.91
2023-03-28T07:39:56.545Z,102436.47
2023-03-28T07:42:29.222Z,102422.69
2023-03-28T07:45:09.021Z,102417.53
2023-03-28T07:47:41.912Z,102443.53
2023-03-28T07:50:16.069Z,102432.53
2023-03-28T07:52:49.115Z,102444.97
2023-03-28T07:55:21.814Z,102442.53
2023-03-28T07:57:55.099Z,102436.06
2023-03-28T08:00:27.744Z,102432.06
2023-03-28T08:03:00.578Z,102430.41
2023-03-28T08:05:34.299Z,102425.25
2023-03-28T08:08:08.005Z,102437.91
2023-03-28T08:10:40.758Z,102415.81
2023-03-28T08:13:26.126Z,102414.69
2023-03-28T08:16:01.820Z,102415.47
2023-03-28T08:18:37.098Z,102406.66
2023-03-28T08:21:10.066Z,102431.00
2023-03-28T08:23:58.222Z,102415.06
2023-03-28T08:26:31.185Z,102434.66
2023-03-28T08:29:04.984Z,102421.25
2023-03-28T08:31:38.163Z,102413.41
2023-03-28T08:34:22.840Z,102410.50
2023-03-28T08:37:00.877Z,102424.22
2023-03-28T08:39:46.118Z,102397.22
2023-03-28T08:43:39.292Z,102420.56
2023-03-28T08:46:23.060Z,102405.72
2023-03-28T08:49:17.364Z,102428.94
2023-03-28T08:52:04.170Z,102416.22
2023-03-28T08:54:59.976Z,102418.81
2023-03-28T08:57:36.089Z,102416.34
2023-03-28T09:00:27.607Z,102413.13
2023-03-28T09:03:01.201Z,102411.91
2023-03-28T09:06:19.788Z,102423.16
2023-03-28T09:09:04.612Z,102407.63
2023-03-28T09:12:20.887Z,102415.81
2023-03-28T09:15:38.644Z,102414.03
2023-03-28T09:18:48.365Z,102413.00
2023-03-28T09:22:15.152Z,102407.56
2023-03-28T09:25:16.152Z,102390.09
2023-03-28T09:28:23.414Z,102405.78
2023-03-28T09:30:59.230Z,102391.13
2023-03-28T09:33:40.615Z,102394.69
2023-03-28T09:36:23.239Z,102403.44
2023-03-28T09:39:02.218Z,102392.38
2023-03-28T09:41:59.803Z,102390.41
2023-03-28T09:47:42.045Z,102401.47
2023-03-28T09:50:29.998Z,102372.16
2023-03-28T09:53:02.602Z,102372.47
2023-03-28T09:55:43.942Z,102361.41
2023-03-28T09:58:21.173Z,102371.50
2023-03-28T10:00:55.530Z,102364.69
2023-03-28T10:03:34.969Z,102371.63
2023-03-28T10:06:29.497Z,102364.19
2023-03-28T10:09:25.165Z,102363.31
2023-03-28T10:12:08.987Z,102348.38
2023-03-28T10:14:47.457Z,102353.31
2023-03-28T10:17:46.586Z,102343.06
2023-03-28T10:20:24.984Z,102344.06
2023-03-28T10:22:57.851Z,102331.19
2023-03-28T10:25:44.537Z,102337.47
2023-03-28T10:28:29.389Z,102335.09
2023-03-28T10:31:04.252Z,102326.72
2023-03-28T10:33:48.880Z,102326.63
2023-03-28T10:36:44.131Z,102327.50
2023-03-28T10:39:35.553Z,102313.94
2023-03-28T10:42:14.461Z,102289.56
2023-03-28T10:45:02.511Z,102306.91
2023-03-28T10:47:35.887Z,102284.66
2023-03-28T10:50:36.563Z,102310.28
2023-03-28T10:53:39.658Z,102302.66
2023-03-28T11:00:09.154Z,102304.53
2023-03-28T11:06:54.957Z,102296.13
2023-03-28T11:10:09.663Z,102304.19
2023-03-28T11:13:24.870Z,102268.41
2023-03-28T11:16:09.366Z,102280.81
2023-03-28T11:18:47.985Z,102275.09
2023-03-28T11:21:59.246Z,102268.72
2023-03-28T11:24:57.364Z,102246.69
2023-03-28T11:27:51.114Z,102239.06
2023-03-28T11:30:33.683Z,102235.25
2023-03-28T11:33:25.966Z,102238.06
2023-03-28T11:36:10.518Z,102229.00
2023-03-28T11:38:53.061Z,102220.41
2023-03-28T11:41:35.767Z,102221.50
2023-03-28T11:44:42.795Z,102211.56
2023-03-28T11:47:28.503Z,102207.19
2023-03-28T11:51:23.953Z,102214.78
2023-03-28T11:54:24.359Z,102202.84
2023-03-28T11:57:17.620Z,102187.28
2023-03-28T12:00:06.751Z,102178.78
2023-03-28T12:02:57.485Z,102180.69
2023-03-28T12:05:46.253Z,102165.13
2023-03-28T12:08:59.231Z,102166.59
2023-03-28T12:11:53.348Z,102160.31
2023-03-28T12:15:05.875Z,102162.22
2023-03-28T12:17:50.766Z,102160.44
2023-03-28T12:20:40.065Z,102135.81
2023-03-28T12:23:59.697Z,102144.31
2023-03-28T12:27:16.060Z,102132.69
2023-03-28T12:30:26.127Z,102136.25
2023-03-28T12:33:10.357Z,102125.28
2023-03-28T12:36:04.797Z,102127.53
2023-03-28T12:38:50.800Z,102119.69
2023-03-28T12:41:37.553Z,102116.56
2023-03-28T12:44:27.199Z,102112.88
2023-03-28T12:47:09.490Z,102116.56
2023-03-28T12:50:03.492Z,102108.59
2023-03-28T12:52:38.353Z,102112.88
2023-03-28T12:55:26.501Z,102110.75
2023-03-28T12:58:26.084Z,102105.47
2023-03-28T13:01:51.730Z,102112.66
2023-03-28T13:04:55.192Z,102091.63
2023-03-28T13:08:09.234Z,102079.44
2023-03-28T13:11:16.769Z,102091.72
2023-03-28T13:14:15.820Z,102080.44
2023-03-28T13:17:01.590Z,102088.59
2023-03-28T13:19:43.413Z,102082.34
2023-03-28T13:22:48.352Z,102080.53
2023-03-28T13:25:38.070Z,102074.72
2023-03-28T13:28:10.608Z,102063.53
2023-03-28T13:30:46.870Z,102068.00
2023-03-28T13:33:37.612Z,102062.19
2023-03-28T13:36:10.743Z,102046.13
2023-03-28T13:39:17.745Z,102046.56
2023-03-28T13:41:50.497Z,102045.31
2023-03-28T13:44:36.251Z,102037.50
2023-03-28T13:47:23.175Z,102035.03
2023-03-28T13:50:14.112Z,102033.16
2023-03-28T13:52:46.821Z,102026.00
2023-03-28T13:55:27.128Z,102027.56
2023-03-28T13:58:01.728Z,102016.38
2023-03-28T14:00:34.346Z,102011.69
2023-03-28T14:03:15.532Z,102019.47
2023-03-28T14:05:48.431Z,102013.88
2023-03-28T14:08:25.673Z,102008.19
2023-03-28T14:11:00.875Z,101986.59
2023-03-28T14:13:33.909Z,101987.13
2023-03-28T14:16:07.870Z,101983.22
2023-03-28T14:18:51.541Z,101974.94
2023-03-28T14:21:25.807Z,101973.13
2023-03-28T14:24:11.969Z,101956.91
2023-03-28T14:26:47.074Z,101957.88
2023-03-28T14:29:20.294Z,101958.41
2023-03-28T14:32:54.440Z,101968.50
2023-03-28T14:35:35.454Z,101956.97
2023-03-28T14:38:32.280Z,101960.59
2023-03-28T14:41:21.797Z,101941.34
2023-03-28T14:43:57.889Z,101931.63
2023-03-28T14:46:33.893Z,101927.97
2023-03-28T14:49:20.280Z,101908.38
2023-03-28T14:52:00.364Z,101920.88
2023-03-28T14:54:53.405Z,101912.78
2023-03-28T14:57:26.909Z,101905.50
2023-03-28T15:00:12.501Z,101905.31
2023-03-28T15:02:52.947Z,101897.56
2023-03-28T15:05:26.078Z,101876.41
2023-03-28T15:08:03.747Z,101895.41
2023-03-28T15:10:54.616Z,101892.03
2023-03-28T15:13:38.468Z,101876.13
2023-03-28T15:16:20.546Z,101867.09
2023-03-28T15:19:38.282Z,101875.84
2023-03-28T15:22:19.708Z,101855.75
2023-03-28T15:24:52.660Z,101853.41
2023-03-28T15:27:35.769Z,101857.78
2023-03-28T15:30:33.104Z,101845.00
2023-03-28T15:33:24.819Z,101838.78
2023-03-28T15:36:27.810Z,101841.75
2023-03-28T15:39:21.798Z,101817.28
2023-03-28T15:42:22.661Z,101837.22
2023-03-28T15:44:58.189Z,101842.06
2023-03-28T15:47:35.574Z,101826.16
2023-03-28T15:50:19.707Z,101825.41
2023-03-28T15:53:02.598Z,101825.53
2023-03-28T15:55:35.935Z,101823.22
2023-03-28T15:58:16.584Z,101830.34
2023-03-28T16:00:53.391Z,101825.81
2023-03-28T16:03:34.806Z,101822.25
2023-03-28T16:06:32.187Z,101820.09
2023-03-28T16:09:20.052Z,101815.41
2023-03-28T16:12:03.004Z,101821.28
2023-03-28T16:14:36.290Z,101816.63
2023-03-28T16:17:09.021Z,101804.63
2023-03-28T16:19:43.848Z,101807.59
2023-03-28T16:22:16.466Z,101794.50
2023-03-28T16:24:50.790Z,101811.78
2023-03-28T16:27:23.323Z,101809.44
2023-03-28T16:29:56.905Z,101801.94
2023-03-28T16:32:29.813Z,101790.28
2023-03-28T16:35:02.394Z,101799.75
2023-03-28T16:37:34.978Z,101792.31
2023-03-28T16:40:09.117Z,101780.03
2023-03-28T16:42:41.851Z,101793.94
2023-03-28T16:45:14.840Z,101781.22
2023-03-28T16:47:47.838Z,101789.00
2023-03-28T16:50:20.595Z,101785.22
2023-03-28T16:52:53.093Z,101798.00
2023-03-28T16:55:26.004Z,101774.31
2023-03-28T16:57:59.175Z,101789.72
2023-03-28T17:00:33.847Z,101791.44
2023-03-28T17:03:07.161Z,101778.59
2023-03-28T17:05:39.881Z,101784.06
2023-03-28T17:08:12.523Z,101797.63
2023-03-28T17:10:45.126Z,101797.72
2023-03-28T17:13:17.862Z,101789.03
2023-03-28T17:15:51.888Z,101785.44
2023-03-28T17:18:27.115Z,101794.78
2023-03-28T17:21:06.615Z,101784.34
2023-03-28T17:23:42.078Z,101785.41
2023-03-28T17:26:16.017Z,101777.78
2023-03-28T17:28:50.750Z,101769.84
2023-03-28T17:31:24.622Z,101769.03
2023-03-28T17:33:57.318Z,101769.22
2023-03-28T17:36:30.329Z,101768.56
2023-03-28T17:39:04.494Z,101776.19
2023-03-28T17:41:37.742Z,101777.72
2023-03-28T17:44:10.473Z,101768.13
2023-03-28T17:46:44.668Z,101763.56
2023-03-28T17:49:18.439Z,101757.00
2023-03-28T17:51:51.931Z,101756.13
2023-03-28T17:54:25.551Z,101747.84
2023-03-28T17:56:59.138Z,101756.56
2023-03-28T17:59:32.157Z,101764.63
2023-03-28T18:02:05.006Z,101757.16
2023-03-28T18:04:37.555Z,101752.78
2023-03-28T18:07:16.166Z,101756.50
2023-03-28T18:09:50.485Z,101755.25
2023-03-28T18:12:23.157Z,101740.31
2023-03-28T18:14:58.935Z,101751.03
2023-03-28T18:17:33.592Z,101755.53
2023-03-28T18:20:08.582Z,101756.00
2023-03-28T18:22:42.543Z,101750.22
2023-03-28T18:25:15.109Z,101745.41
2023-03-28T18:27:47.603Z,101756.91
2023-03-28T18:30:20.452Z,101751.13
2023-03-28T18:32:53.079Z,101758.28
2023-03-28T18:35:27.287Z,101753.59
2023-03-28T18:38:00.055Z,101766.97
2023-03-28T18:40:32.996Z,101738.19
2023-03-28T18:43:05.861Z,101748.00
2023-03-28T18:45:38.645Z,101759.16
2023-03-28T18:48:12.729Z,101757.63
2023-03-28T18:50:45.491Z,101761.63
2023-03-28T18:53:18.621Z,101761.78
2023-03-28T18:55:53.044Z,101739.50
2023-03-28T18:58:26.200Z,101755.28
2023-03-28T19:01:03.292Z,101747.34
2023-03-28T19:03:40.516Z,101752.38
2023-03-28T19:06:15.205Z,101753.47
2023-03-28T19:08:48.515Z,101726.28
2023-03-28T19:11:21.253Z,101734.09
2023-03-28T19:13:55.366Z,101724.81
2023-03-28T19:16:28.176Z,101726.34
2023-03-28T19:19:01.184Z,101723.31
2023-03-28T19:21:33.854Z,101718.59
2023-03-28T19:24:07.094Z,101721.00
2023-03-28T19:26:39.634Z,101723.66
2023-03-28T19:29:12.274Z,101717.16
2023-03-28T19:31:45.985Z,101706.91
2023-03-28T19:34:20.276Z,101712.06
2023-03-28T19:36:53.163Z,101696.06
2023-03-28T19:39:25.854Z,101684.75
2023-03-28T19:41:58.533Z,101682.28
2023-03-28T19:44:33.221Z,101680.56
2023-03-28T19:47:06.939Z,101665.50
2023-03-28T19:49:39.647Z,101661.91
2023-03-28T19:52:12.343Z,101663.78
2023-03-28T19:54:44.834Z,101667.03
2023-03-28T19:57:17.585Z,101665.81
2023-03-28T19:59:50.830Z,101654.44
2023-03-28T20:02:23.601Z,101661.31
2023-03-28T20:04:57.014Z,101664.13
2023-03-28T20:07:30.911Z,101655.22
2023-03-28T20:10:04.143Z,101657.25
2023-03-28T20:12:40.021Z,101665.22
2023-03-28T20:15:12.850Z,101650.41
2023-03-28T20:17:46.337Z,101654.44
2023-03-28T20:20:19.516Z,101660.53
2023-03-28T20:22:52.044Z,101643.41
2023-03-28T20:25:33.268Z,101639.50
2023-03-28T20:28:10.068Z,101635.19
2023-03-28T20:30:45.096Z,101645.13
2023-03-28T20:33:18.466Z,101639.53
2023-03-28T20:35:56.921Z,101628.19
2023-03-28T20:38:30.247Z,101632.72
2023-03-28T20:41:03.139Z,101615.63
2023-03-28T20:43:36.740Z,101604.91
2023-03-28T20:46:22.518Z,101604.91
2023-03-28T20:48:56.951Z,101595.09
2023-03-28T20:51:30.871Z,101599.47
2023-03-28T20:54:05.049Z,101581.09
2023-03-28T20:56:37.785Z,101581.41
2023-03-28T20:59:10.677Z,101571.94
2023-03-28T21:02:02.147Z,101584.22
2023-03-28T21:04:35.062Z,101572.41
2023-03-28T21:07:07.669Z,101563.38
2023-03-28T21:09:41.715Z,101565.56
2023-03-28T21:12:29.443Z,101568.97
2023-03-28T21:15:15.419Z,101562.16
2023-03-28T21:17:49.812Z,101553.69
2023-03-28T21:20:22.392Z,101559.47
2023-03-28T21:22:56.594Z,101584.31
2023-03-28T21:25:29.148Z,101585.81
2023-03-28T21:28:01.945Z,101582.63
2023-03-28T21:30:34.760Z,101577.19
2023-03-28T21:33:08.215Z,101570.16
2023-03-28T21:35:40.913Z,101563.34
2023-03-28T21:38:13.434Z,101581.81
2023-03-28T21:40:48.225Z,101571.41
2023-03-28T21:43:20.960Z,101569.25
2023-03-28T21:45:55.107Z,101563.34
2023-03-28T21:48:28.394Z,101565.56
2023-03-28T21:51:02.579Z,101579.16
2023-03-28T21:53:38.386Z,101563.34
2023-03-28T21:56:12.688Z,101555.41
2023-03-28T21:58:45.392Z,101550.25
2023-03-28T22:01:18.832Z,101542.19
2023-03-28T22:04:01.023Z,101525.09
2023-03-28T22:06:42.783Z,101506.75
2023-03-28T22:09:19.734Z,101525.84
2023-03-28T22:11:56.072Z,101525.09
2023-03-28T22:14:31.519Z,101524.31
2023-03-28T22:17:04.125Z,101517.91
2023-03-28T22:19:38.073Z,101535.94
2023-03-28T22:22:11.186Z,101534.41
2023-03-28T22:24:44.597Z,101532.84
2023-03-28T22:27:18.234Z,101518.84
2023-03-28T22:29:51.069Z,101515.72
2023-03-28T22:32:27.384Z,101504.97
2023-03-28T22:35:00.193Z,101512.63
2023-03-28T22:37:33.492Z,101511.97
2023-03-28T22:40:11.047Z,101523.97
2023-03-28T22:42:43.957Z,101514.03
2023-03-28T22:45:16.773Z,101508.13
2023-03-28T22:48:06.491Z,101504.69
2023-03-28T22:50:39.144Z,101493.06
2023-03-28T22:53:20.044Z,101452.00
2023-03-28T22:55:53.129Z,101476.44
2023-03-28T23:01:12.368Z,101450.84
2023-03-28T23:03:50.928Z,101447.69
2023-03-28T23:06:23.718Z,101417.84
2023-03-28T23:08:58.889Z,101426.41
2023-03-28T23:11:31.753Z,101434.16
2023-03-28T23:14:04.948Z,101426.72
2023-03-28T23:16:40.781Z,101447.81
2023-03-28T23:19:31.445Z,101450.84
2023-03-28T23:22:04.397Z,101430.59
2023-03-28T23:24:47.038Z,101433.38
2023-03-28T23:27:20.035Z,101432.09
2023-03-28T23:29:52.813Z,101438.00
2023-03-28T23:32:25.448Z,101433.06
2023-03-28T23:35:09.894Z,101416.59
2023-03-28T23:37:45.357Z,101412.69
2023-03-28T23:40:18.546Z,101409.91
2023-03-28T23:42:51.195Z,101405.38
2023-03-28T23:45:39.679Z,101398.41
2023-03-28T23:48:14.249Z,101394.22
2023-03-28T23:51:04.551Z,101416.31
2023-03-28T23:53:38.771Z,101392.06
2023-03-28T23:56:11.622Z,101417.47
2023-03-28T23:58:51.741Z,101379.50
